Main page
METAR-TAF:

METAR-TAF

Airports :

Farmington Regional Airport

Farmington, Missouri, United States

latitude: 37-46N, longitude: 090-26W, elevation: 945 ft

Current weather observation

The report was made 55 minutes ago, at 11:56 UTC
Wind 3 mph from the North
Temperature 63°F
Humidity 94%
Pressure 29.93 in. Hg
Visibility: 10 miles
Scattered clouds at a height of 3100 ft
Scattered clouds at a height of 3600 ft
Broken clouds at a height of 7500 ft

METAR: KFAM 231156Z AUTO 01003KT 10SM SCT031 SCT036 BKN075 17/16 A2993 RMK AO2 SLP139 60027 70027 T01670161 10183 20156 53001

Time: 07:51 (12:51 UTC)


TAF: missing

Weather observations and forecasts of more than 4000 airports (METAR and TAF reports).

The available stations are represented by yellow and red dots on the map.

Hover mouse over dot to see the name of the station.

Then click to see weather observations and forecasts.

To change the map : click on the green buttons with a black cross to zoom in, on the green button with a dash to zoom out, or on the green arrows for adjacent maps.


METAR-TAF: